createdAt,value
2022-07-31T00:04:44.035Z,3.77
2022-07-31T00:09:53.734Z,3.30
2022-07-31T00:14:56.321Z,4.53
2022-07-31T00:19:58.058Z,2.83
2022-07-31T00:24:59.787Z,2.35
2022-07-31T00:30:01.627Z,4.68
2022-07-31T00:35:03.564Z,3.30
2022-07-31T00:40:06.516Z,4.73
2022-07-31T00:45:09.958Z,3.88
2022-07-31T00:50:15.270Z,2.63
2022-07-31T00:55:51.319Z,2.75
2022-07-31T01:00:54.068Z,2.72
2022-07-31T01:05:55.901Z,2.80
2022-07-31T01:11:13.181Z,2.10
2022-07-31T01:16:17.083Z,2.20
2022-07-31T01:21:35.268Z,2.40
2022-07-31T01:27:01.474Z,2.37
2022-07-31T01:32:17.365Z,2.63
2022-07-31T01:37:24.100Z,2.50
2022-07-31T01:42:27.392Z,1.58
2022-07-31T01:47:31.553Z,2.20
2022-07-31T01:52:34.335Z,2.47
2022-07-31T01:57:38.161Z,2.17
2022-07-31T02:02:42.522Z,1.63
2022-07-31T02:07:46.652Z,1.70
2022-07-31T02:12:49.358Z,2.45
2022-07-31T02:17:52.529Z,2.72
2022-07-31T02:22:55.221Z,2.20
2022-07-31T02:27:59.742Z,2.60
2022-07-31T02:33:03.315Z,3.20
2022-07-31T02:38:05.821Z,3.10
2022-07-31T02:43:20.421Z,3.13
2022-07-31T02:48:23.732Z,2.63
2022-07-31T02:53:26.572Z,2.33
2022-07-31T02:58:28.410Z,3.40
2022-07-31T03:03:30.289Z,3.50
2022-07-31T03:09:45.436Z,3.03
2022-07-31T03:14:00.372Z,1.75
2022-07-31T03:19:04.056Z,1.90
2022-07-31T03:24:06.423Z,1.80
2022-07-31T03:29:41.533Z,1.98
2022-07-31T03:34:29.877Z,2.70
2022-07-31T03:39:31.635Z,2.00
2022-07-31T03:44:34.402Z,2.92
2022-07-31T03:49:36.403Z,1.13
2022-07-31T03:54:38.317Z,2.22
2022-07-31T03:59:40.739Z,0.97
2022-07-31T04:04:49.875Z,2.77
2022-07-31T04:09:51.915Z,1.63
2022-07-31T04:14:53.638Z,3.40
2022-07-31T04:19:55.349Z,1.08
2022-07-31T04:24:57.133Z,2.00
2022-07-31T04:29:58.976Z,2.78
2022-07-31T04:35:00.684Z,3.13
2022-07-31T04:40:02.528Z,0.90
2022-07-31T04:45:04.584Z,1.27
2022-07-31T04:50:06.779Z,0.90
2022-07-31T04:55:08.951Z,1.53
2022-07-31T05:00:11.210Z,1.70
2022-07-31T05:05:12.979Z,1.30
2022-07-31T05:10:14.778Z,1.50
2022-07-31T05:15:16.733Z,0.90
2022-07-31T05:20:18.469Z,1.13
2022-07-31T05:25:20.195Z,0.98
2022-07-31T05:30:42.163Z,1.10
2022-07-31T05:35:43.891Z,0.93
2022-07-31T05:40:45.666Z,3.50
2022-07-31T05:45:47.577Z,2.55
2022-07-31T05:50:50.681Z,2.30
2022-07-31T05:55:52.602Z,3.37
2022-07-31T06:00:54.374Z,1.73
2022-07-31T06:05:56.528Z,2.40
2022-07-31T06:10:58.654Z,1.70
2022-07-31T06:16:00.370Z,2.03
2022-07-31T06:21:02.073Z,1.88
2022-07-31T06:26:03.933Z,1.90
2022-07-31T06:31:06.597Z,2.63
2022-07-31T06:36:11.044Z,2.88
2022-07-31T06:41:13.052Z,2.20
2022-07-31T06:46:14.785Z,2.38
2022-07-31T06:51:32.463Z,2.85
2022-07-31T06:56:35.694Z,2.20
2022-07-31T07:01:37.499Z,2.07
2022-07-31T07:06:39.316Z,2.17
2022-07-31T07:11:41.064Z,2.30
2022-07-31T07:16:42.836Z,2.60
2022-07-31T07:21:44.551Z,2.23
2022-07-31T07:26:46.279Z,2.30
2022-07-31T07:31:48.029Z,2.80
2022-07-31T07:36:49.739Z,2.38
2022-07-31T07:41:51.494Z,3.40
2022-07-31T07:46:53.198Z,3.03
2022-07-31T07:51:59.082Z,2.53
2022-07-31T07:57:01.949Z,2.67
2022-07-31T08:02:04.007Z,9.13
2022-07-31T08:07:06.158Z,2.58
2022-07-31T08:12:08.035Z,2.30
2022-07-31T08:17:13.720Z,2.70
2022-07-31T08:22:15.530Z,3.15
2022-07-31T08:27:17.252Z,3.60
2022-07-31T08:32:24.522Z,2.77
2022-07-31T08:37:50.987Z,3.97
2022-07-31T08:42:47.943Z,3.80
2022-07-31T08:47:49.956Z,3.77
2022-07-31T08:52:56.681Z,2.22
2022-07-31T08:57:58.616Z,4.03
2022-07-31T09:03:01.081Z,2.85
2022-07-31T09:08:08.394Z,3.90
2022-07-31T09:13:19.249Z,2.63
2022-07-31T09:18:21.849Z,3.20
2022-07-31T09:23:24.697Z,3.65
2022-07-31T09:28:37.208Z,4.68
2022-07-31T09:33:45.644Z,3.25
2022-07-31T09:38:48.147Z,2.72
2022-07-31T09:44:00.557Z,1.97
2022-07-31T09:49:02.339Z,2.22
2022-07-31T09:54:04.113Z,1.60
2022-07-31T09:59:05.846Z,1.98
2022-07-31T10:04:08.342Z,2.17
2022-07-31T10:09:10.892Z,2.50
2022-07-31T10:14:18.919Z,2.42
2022-07-31T10:19:22.282Z,1.90
2022-07-31T10:24:28.386Z,2.72
2022-07-31T10:29:32.820Z,3.20
2022-07-31T10:34:35.858Z,4.38
2022-07-31T10:40:08.560Z,4.73
2022-07-31T10:45:12.551Z,3.28
2022-07-31T10:50:22.269Z,2.60
2022-07-31T10:55:24.626Z,3.53
2022-07-31T11:00:28.520Z,2.50
2022-07-31T11:05:31.838Z,2.33
2022-07-31T11:10:55.391Z,1.80
2022-07-31T11:16:06.676Z,3.08
2022-07-31T11:21:29.151Z,1.42
2022-07-31T11:26:40.913Z,1.63
2022-07-31T11:31:43.955Z,1.52
2022-07-31T11:36:50.723Z,1.58
2022-07-31T11:41:53.425Z,2.97
2022-07-31T11:46:55.405Z,2.13
2022-07-31T11:52:01.470Z,2.97
2022-07-31T11:57:03.651Z,2.40
2022-07-31T12:02:13.553Z,0.80
2022-07-31T12:07:15.354Z,1.33
2022-07-31T12:12:18.469Z,1.30
2022-07-31T12:17:22.054Z,1.02
2022-07-31T12:22:23.769Z,1.17
2022-07-31T12:27:25.613Z,1.52
2022-07-31T12:32:28.148Z,2.00
2022-07-31T12:37:30.134Z,2.20
2022-07-31T12:42:39.066Z,2.08
2022-07-31T12:47:40.976Z,2.28
2022-07-31T12:52:42.891Z,1.38
2022-07-31T12:57:51.401Z,1.80
2022-07-31T13:02:56.191Z,1.00
2022-07-31T13:07:57.967Z,1.57
2022-07-31T13:12:59.658Z,0.98
2022-07-31T13:18:01.887Z,1.67
2022-07-31T13:23:03.613Z,1.17
2022-07-31T13:28:05.327Z,1.17
2022-07-31T13:33:07.040Z,1.00
2022-07-31T13:38:08.757Z,1.23
2022-07-31T13:43:10.693Z,0.63
2022-07-31T13:48:12.416Z,0.70
2022-07-31T13:53:14.287Z,1.20
2022-07-31T13:58:16.004Z,1.90
2022-07-31T14:03:18.489Z,1.73
2022-07-31T14:08:32.888Z,3.53
2022-07-31T14:13:45.231Z,1.88
2022-07-31T14:18:46.937Z,1.63
2022-07-31T14:23:48.682Z,1.55
2022-07-31T14:28:50.541Z,0.70
2022-07-31T14:33:52.280Z,0.77
2022-07-31T14:38:54.007Z,1.48
2022-07-31T14:43:55.720Z,0.73
2022-07-31T14:48:57.738Z,0.60
2022-07-31T14:53:59.978Z,1.60
2022-07-31T14:59:01.864Z,0.75
2022-07-31T15:04:03.901Z,1.95
2022-07-31T15:09:05.638Z,0.57
2022-07-31T15:14:07.487Z,0.80
2022-07-31T15:19:09.266Z,0.77
2022-07-31T15:24:11.901Z,1.00
2022-07-31T15:29:13.626Z,0.95
2022-07-31T15:34:15.392Z,0.80
2022-07-31T15:39:17.112Z,0.98
2022-07-31T15:44:18.801Z,0.60
2022-07-31T15:49:20.675Z,1.17
2022-07-31T15:54:23.279Z,0.55
2022-07-31T15:59:24.998Z,0.70
2022-07-31T16:04:26.758Z,1.00
2022-07-31T16:09:33.349Z,0.85
2022-07-31T16:14:35.063Z,0.40
2022-07-31T16:19:36.793Z,0.90
2022-07-31T16:24:38.936Z,1.10
2022-07-31T16:29:59.694Z,0.73
2022-07-31T16:35:02.815Z,1.13
2022-07-31T16:40:05.914Z,1.37
2022-07-31T16:45:08.221Z,0.47
2022-07-31T16:50:10.474Z,0.50
2022-07-31T16:55:12.311Z,0.40
2022-07-31T17:00:14.401Z,1.00
2022-07-31T17:05:16.454Z,0.47
2022-07-31T17:10:18.156Z,0.70
2022-07-31T17:15:19.893Z,0.90
2022-07-31T17:20:23.270Z,1.38
2022-07-31T17:25:25.234Z,0.70
2022-07-31T17:30:28.459Z,1.98
2022-07-31T17:35:30.158Z,1.13
2022-07-31T17:40:43.868Z,1.77
2022-07-31T17:46:06.147Z,1.43
2022-07-31T17:51:07.692Z,1.55
2022-07-31T17:56:13.193Z,0.88
2022-07-31T18:01:15.043Z,0.98
2022-07-31T18:06:16.799Z,2.45
2022-07-31T18:11:18.661Z,1.70
2022-07-31T18:16:21.335Z,2.70
2022-07-31T18:21:23.029Z,2.75
2022-07-31T18:26:24.812Z,1.98
2022-07-31T18:31:34.208Z,0.80
2022-07-31T18:36:38.115Z,1.80
2022-07-31T18:41:39.972Z,1.38
2022-07-31T18:46:41.890Z,1.80
2022-07-31T18:51:43.652Z,2.20
2022-07-31T18:56:46.042Z,1.70
2022-07-31T19:01:47.832Z,2.13
2022-07-31T19:06:54.093Z,0.90
2022-07-31T19:12:01.804Z,1.10
2022-07-31T19:17:08.410Z,2.30
2022-07-31T19:22:10.390Z,3.50
2022-07-31T19:27:12.298Z,1.35
2022-07-31T19:32:14.130Z,1.58
2022-07-31T19:37:16.267Z,3.27
2022-07-31T19:42:18.103Z,1.27
2022-07-31T19:47:19.860Z,1.70
2022-07-31T19:52:24.832Z,2.13
2022-07-31T19:57:26.623Z,1.00
2022-07-31T20:02:28.361Z,1.77
2022-07-31T20:07:32.884Z,2.10
2022-07-31T20:12:34.906Z,2.55
2022-07-31T20:17:37.312Z,2.80
2022-07-31T20:22:39.175Z,2.25
2022-07-31T20:27:41.541Z,2.20
2022-07-31T20:32:48.690Z,2.90
2022-07-31T20:37:50.563Z,2.33
2022-07-31T20:42:52.287Z,2.97
2022-07-31T20:47:54.069Z,2.17
2022-07-31T20:52:55.778Z,1.70
2022-07-31T20:57:57.507Z,1.20
2022-07-31T21:02:59.218Z,1.95
2022-07-31T21:08:00.916Z,1.00
2022-07-31T21:13:04.629Z,2.50
2022-07-31T21:18:06.514Z,2.73
2022-07-31T21:23:08.251Z,3.50
2022-07-31T21:28:12.713Z,2.80
2022-07-31T21:33:14.690Z,3.08
2022-07-31T21:38:17.592Z,3.92
2022-07-31T21:43:22.449Z,3.50
2022-07-31T21:48:26.713Z,3.10
2022-07-31T21:53:36.089Z,2.42
2022-07-31T21:58:40.564Z,2.95
2022-07-31T22:03:42.776Z,4.35
2022-07-31T22:08:44.878Z,3.55
2022-07-31T22:13:47.233Z,3.20
2022-07-31T22:18:49.273Z,2.83
2022-07-31T22:23:51.265Z,3.73
2022-07-31T22:28:54.104Z,4.25
2022-07-31T22:33:56.342Z,3.05
2022-07-31T22:38:58.103Z,3.10
2022-07-31T22:44:12.247Z,3.53
2022-07-31T22:49:18.136Z,7.03
2022-07-31T22:54:19.888Z,3.95
2022-07-31T22:59:21.608Z,4.43
2022-07-31T23:04:23.748Z,6.30
2022-07-31T23:09:25.621Z,4.40
2022-07-31T23:14:27.880Z,3.95
2022-07-31T23:19:29.658Z,3.58
2022-07-31T23:24:31.631Z,3.40
2022-07-31T23:29:33.652Z,3.83
2022-07-31T23:34:43.305Z,3.88
2022-07-31T23:39:45.076Z,3.15
2022-07-31T23:44:46.777Z,3.37
2022-07-31T23:49:48.584Z,4.07
2022-07-31T23:54:50.437Z,2.80
2022-07-31T23:59:52.167Z,2.40
